Time,TemperatureF,DewpointF,PressureIn,WindDirection,WindDirectionDegrees,WindSpeedMPH,WindSpeedGustMPH,Humidity,HourlyPrecipIn,Conditions,Clouds,dailyrainin,SoftwareType,DateUTC
2013-01-19 00:02:00,23.5,20.5,29.74,NE,37,0.0,5.0,88,0.00,,,0.00,meteohub,2013-01-18 23:02:00,
2013-01-19 00:32:00,23.4,20.3,29.73,NE,34,2.0,7.0,88,0.00,,,0.00,meteohub,2013-01-18 23:32:00,
2013-01-19 01:02:00,23.4,20.3,29.72,ENE,68,2.0,5.0,88,0.00,,,0.00,meteohub,2013-01-19 00:02:00,
2013-01-19 01:32:00,23.4,20.3,29.72,NE,42,0.0,4.0,88,0.00,,,0.00,meteohub,2013-01-19 00:32:00,
2013-01-19 02:02:00,23.4,20.3,29.72,NE,49,1.0,6.0,88,0.00,,,0.00,meteohub,2013-01-19 01:02:00,
2013-01-19 02:32:00,23.4,20.3,29.71,East,90,0.0,4.0,88,0.00,,,0.00,meteohub,2013-01-19 01:32:00,
2013-01-19 03:02:00,23.4,20.3,29.71,East,80,0.0,2.0,88,0.00,,,0.00,meteohub,2013-01-19 02:02:00,
2013-01-19 03:32:00,23.4,20.3,29.69,NE,56,0.0,3.0,88,0.00,,,0.00,meteohub,2013-01-19 02:32:00,
2013-01-19 04:02:00,23.2,19.9,29.68,East,82,0.0,4.0,87,0.00,,,0.00,meteohub,2013-01-19 03:02:00,
2013-01-19 04:32:00,23.2,19.6,29.68,SE,138,0.0,4.0,86,0.00,,,0.00,meteohub,2013-01-19 03:32:00,
2013-01-19 05:02:00,22.8,19.6,29.65,East,87,0.0,5.0,87,0.00,,,0.00,meteohub,2013-01-19 04:02:00,
2013-01-19 05:32:00,22.6,19.4,29.65,ESE,117,1.0,2.0,87,0.00,,,0.00,meteohub,2013-01-19 04:32:00,
2013-01-19 06:02:00,21.7,18.5,29.65,East,99,0.0,3.0,87,0.00,,,0.00,meteohub,2013-01-19 05:02:00,
2013-01-19 06:32:00,21.9,19.2,29.65,SSW,209,1.0,4.0,89,0.00,,,0.00,meteohub,2013-01-19 05:32:00,
2013-01-19 07:02:00,21.9,18.7,29.64,ENE,61,0.0,3.0,87,0.00,,,0.00,meteohub,2013-01-19 06:02:00,
2013-01-19 07:32:00,21.7,18.5,29.64,SSE,150,0.0,4.0,87,0.00,,,0.00,meteohub,2013-01-19 06:32:00,
2013-01-19 08:02:00,21.7,18.7,29.63,SW,232,0.0,3.0,88,0.00,,,0.00,meteohub,2013-01-19 07:02:00,
2013-01-19 08:32:00,21.9,18.9,29.63,ESE,111,0.0,3.0,88,0.00,,,0.00,meteohub,2013-01-19 07:32:00,
2013-01-19 09:02:00,21.9,18.3,29.64,NE,46,4.0,5.0,86,0.00,,,0.00,meteohub,2013-01-19 08:02:00,
2013-01-19 09:32:00,21.9,18.3,29.63,ENE,67,1.0,5.0,86,0.00,,,0.00,meteohub,2013-01-19 08:32:00,
2013-01-19 10:02:00,22.3,18.7,29.62,NE,41,0.0,6.0,86,0.00,,,0.00,meteohub,2013-01-19 09:02:00,
2013-01-19 10:32:00,22.6,19.0,29.63,SSW,205,0.0,4.0,86,0.00,,,0.00,meteohub,2013-01-19 09:32:00,
2013-01-19 11:02:00,22.8,19.0,29.62,East,87,0.0,3.0,85,0.00,,,0.00,meteohub,2013-01-19 10:02:00,
2013-01-19 11:32:00,23.2,19.0,29.62,East,82,0.0,3.0,84,0.00,,,0.00,meteohub,2013-01-19 10:32:00,
2013-01-19 12:02:00,24.1,19.4,29.61,East,90,2.0,3.0,82,0.00,,,0.00,meteohub,2013-01-19 11:02:00,
2013-01-19 14:02:00,24.6,19.6,29.59,SE,143,0.0,2.0,81,0.00,,,0.00,meteohub,2013-01-19 13:02:00,
2013-01-19 14:32:00,25.9,19.8,29.59,SE,136,0.0,3.0,77,0.00,,,0.00,meteohub,2013-01-19 13:32:00,
2013-01-19 15:02:00,25.0,19.4,29.59,North,9,0.0,5.0,79,0.00,,,0.00,meteohub,2013-01-19 14:02:00,
2013-01-19 15:32:00,24.8,19.2,29.59,East,82,1.0,3.0,79,0.00,,,0.00,meteohub,2013-01-19 14:32:00,
2013-01-19 16:02:00,24.3,19.2,29.60,East,83,0.0,2.0,81,0.00,,,0.00,meteohub,2013-01-19 15:02:00,
2013-01-19 16:32:00,23.9,19.2,29.60,East,83,0.0,2.0,82,0.00,,,0.00,meteohub,2013-01-19 15:32:00,
2013-01-19 17:02:00,23.2,18.9,29.60,East,81,0.0,2.0,83,0.00,,,0.00,meteohub,2013-01-19 16:02:00,
2013-01-19 17:32:00,22.3,18.5,29.60,East,81,0.0,1.0,85,0.00,,,0.00,meteohub,2013-01-19 16:32:00,
2013-01-19 18:02:00,22.1,18.0,29.60,East,81,0.0,1.0,84,0.00,,,0.00,meteohub,2013-01-19 17:02:00,
2013-01-19 18:32:00,22.5,18.9,29.60,East,81,0.0,2.0,86,0.00,,,0.00,meteohub,2013-01-19 17:32:00,
2013-01-19 19:02:00,22.8,19.0,29.61,SE,142,0.0,3.0,85,0.00,,,0.00,meteohub,2013-01-19 18:02:00,
2013-01-19 19:32:00,23.2,19.0,29.61,SE,142,0.0,2.0,84,0.00,,,0.00,meteohub,2013-01-19 18:32:00,
2013-01-19 20:02:00,23.4,19.2,29.60,ESE,115,1.0,3.0,84,0.00,,,0.00,meteohub,2013-01-19 19:02:00,
2013-01-19 20:32:00,23.4,19.2,29.60,West,269,1.0,3.0,84,0.00,,,0.00,meteohub,2013-01-19 19:32:00,
2013-01-19 21:02:00,23.5,19.4,29.60,East,100,0.0,4.0,84,0.00,,,0.00,meteohub,2013-01-19 20:02:00,
2013-01-19 21:32:00,23.5,19.4,29.60,ENE,73,0.0,4.0,84,0.00,,,0.00,meteohub,2013-01-19 20:32:00,
2013-01-19 22:02:00,23.5,19.4,29.61,ENE,78,0.0,3.0,84,0.00,,,0.00,meteohub,2013-01-19 21:02:00,
2013-01-19 22:32:00,23.5,19.8,29.61,East,91,0.0,3.0,85,0.00,,,0.00,meteohub,2013-01-19 21:32:00,
2013-01-19 23:02:00,23.5,19.8,29.61,ENE,77,1.0,2.0,85,0.00,,,0.00,meteohub,2013-01-19 22:02:00,
2013-01-19 23:32:00,23.5,19.8,29.60,East,96,0.0,2.0,85,0.00,,,0.00,meteohub,2013-01-19 22:32:00,